sensor_id;sensor_type;location;lat;lon;timestamp;pressure;altitude;pressure_sealevel;temperature
80496;BMP180;69819;48.798;11.770;2023-06-04T00:01:58;97598.00;;;15.50
80496;BMP180;69819;48.798;11.770;2023-06-04T00:04:26;97611.00;;;15.50
80496;BMP180;69819;48.798;11.770;2023-06-04T00:06:51;97600.00;;;15.40
80496;BMP180;69819;48.798;11.770;2023-06-04T00:09:18;97560.00;;;15.40
80496;BMP180;69819;48.798;11.770;2023-06-04T00:11:43;97591.00;;;15.30
80496;BMP180;69819;48.798;11.770;2023-06-04T00:14:11;97593.00;;;15.30
80496;BMP180;69819;48.798;11.770;2023-06-04T00:16:37;97575.00;;;15.30
80496;BMP180;69819;48.798;11.770;2023-06-04T00:19:03;97585.00;;;15.20
80496;BMP180;69819;48.798;11.770;2023-06-04T00:21:29;97583.00;;;15.20
80496;BMP180;69819;48.798;11.770;2023-06-04T00:23:55;97571.00;;;15.10
80496;BMP180;69819;48.798;11.770;2023-06-04T00:26:20;97581.00;;;15.10
80496;BMP180;69819;48.798;11.770;2023-06-04T00:28:47;97565.00;;;15.00
80496;BMP180;69819;48.798;11.770;2023-06-04T00:31:12;97571.00;;;15.00
80496;BMP180;69819;48.798;11.770;2023-06-04T00:33:42;97596.00;;;14.90
80496;BMP180;69819;48.798;11.770;2023-06-04T00:36:08;97593.00;;;14.90
80496;BMP180;69819;48.798;11.770;2023-06-04T00:38:33;97592.00;;;14.80
80496;BMP180;69819;48.798;11.770;2023-06-04T00:40:59;97596.00;;;14.80
80496;BMP180;69819;48.798;11.770;2023-06-04T00:43:25;97560.00;;;14.80
80496;BMP180;69819;48.798;11.770;2023-06-04T00:45:53;97586.00;;;14.70
80496;BMP180;69819;48.798;11.770;2023-06-04T00:48:20;97570.00;;;14.70
80496;BMP180;69819;48.798;11.770;2023-06-04T00:50:47;97597.00;;;14.70
80496;BMP180;69819;48.798;11.770;2023-06-04T00:53:14;97607.00;;;14.60
80496;BMP180;69819;48.798;11.770;2023-06-04T00:55:40;97552.00;;;14.60
80496;BMP180;69819;48.798;11.770;2023-06-04T00:58:07;97558.00;;;14.50
80496;BMP180;69819;48.798;11.770;2023-06-04T01:00:36;97580.00;;;14.50
80496;BMP180;69819;48.798;11.770;2023-06-04T01:03:13;97589.00;;;14.40
80496;BMP180;69819;48.798;11.770;2023-06-04T01:06:14;97600.00;;;14.40
80496;BMP180;69819;48.798;11.770;2023-06-04T01:08:50;97597.00;;;14.30
80496;BMP180;69819;48.798;11.770;2023-06-04T01:11:39;97607.00;;;14.30
80496;BMP180;69819;48.798;11.770;2023-06-04T01:14:08;97578.00;;;14.30
80496;BMP180;69819;48.798;11.770;2023-06-04T01:16:58;97594.00;;;14.20
80496;BMP180;69819;48.798;11.770;2023-06-04T01:20:05;97607.00;;;14.10
80496;BMP180;69819;48.798;11.770;2023-06-04T01:22:43;97598.00;;;14.10
80496;BMP180;69819;48.798;11.770;2023-06-04T01:27:59;97603.00;;;14.10
80496;BMP180;69819;48.798;11.770;2023-06-04T01:30:35;97610.00;;;14.00
80496;BMP180;69819;48.798;11.770;2023-06-04T01:33:03;97572.00;;;14.00
80496;BMP180;69819;48.798;11.770;2023-06-04T01:35:29;97579.00;;;14.00
80496;BMP180;69819;48.798;11.770;2023-06-04T01:37:58;97613.00;;;14.00
80496;BMP180;69819;48.798;11.770;2023-06-04T01:40:24;97615.00;;;13.90
80496;BMP180;69819;48.798;11.770;2023-06-04T01:42:51;97587.00;;;13.90
80496;BMP180;69819;48.798;11.770;2023-06-04T01:45:17;97584.00;;;13.80
80496;BMP180;69819;48.798;11.770;2023-06-04T01:47:43;97593.00;;;13.80
80496;BMP180;69819;48.798;11.770;2023-06-04T01:50:09;97564.00;;;13.80
80496;BMP180;69819;48.798;11.770;2023-06-04T01:52:36;97618.00;;;13.70
80496;BMP180;69819;48.798;11.770;2023-06-04T01:55:05;97577.00;;;13.70
80496;BMP180;69819;48.798;11.770;2023-06-04T01:57:30;97610.00;;;13.60
80496;BMP180;69819;48.798;11.770;2023-06-04T01:59:56;97603.00;;;13.60
80496;BMP180;69819;48.798;11.770;2023-06-04T02:02:22;97624.00;;;13.50
80496;BMP180;69819;48.798;11.770;2023-06-04T02:04:48;97621.00;;;13.50
80496;BMP180;69819;48.798;11.770;2023-06-04T02:07:21;97626.00;;;13.50
80496;BMP180;69819;48.798;11.770;2023-06-04T02:09:48;97621.00;;;13.40
80496;BMP180;69819;48.798;11.770;2023-06-04T02:12:14;97598.00;;;13.40
80496;BMP180;69819;48.798;11.770;2023-06-04T02:14:40;97605.00;;;13.30
80496;BMP180;69819;48.798;11.770;2023-06-04T02:17:08;97598.00;;;13.30
80496;BMP180;69819;48.798;11.770;2023-06-04T02:19:44;97589.00;;;13.20
80496;BMP180;69819;48.798;11.770;2023-06-04T02:22:16;97612.00;;;13.20
80496;BMP180;69819;48.798;11.770;2023-06-04T02:24:42;97610.00;;;13.10
80496;BMP180;69819;48.798;11.770;2023-06-04T02:27:09;97623.00;;;13.10
80496;BMP180;69819;48.798;11.770;2023-06-04T02:29:36;97637.00;;;13.10
80496;BMP180;69819;48.798;11.770;2023-06-04T02:32:03;97630.00;;;13.00
80496;BMP180;69819;48.798;11.770;2023-06-04T02:34:29;97622.00;;;13.00
80496;BMP180;69819;48.798;11.770;2023-06-04T02:36:55;97585.00;;;12.90
80496;BMP180;69819;48.798;11.770;2023-06-04T02:39:21;97619.00;;;12.90
80496;BMP180;69819;48.798;11.770;2023-06-04T02:41:47;97614.00;;;12.90
80496;BMP180;69819;48.798;11.770;2023-06-04T02:44:13;97599.00;;;12.90
80496;BMP180;69819;48.798;11.770;2023-06-04T02:46:39;97618.00;;;12.80
80496;BMP180;69819;48.798;11.770;2023-06-04T02:49:05;97586.00;;;12.80
80496;BMP180;69819;48.798;11.770;2023-06-04T02:51:31;97597.00;;;12.70
80496;BMP180;69819;48.798;11.770;2023-06-04T02:54:00;97620.00;;;12.70
80496;BMP180;69819;48.798;11.770;2023-06-04T02:56:26;97583.00;;;12.60
80496;BMP180;69819;48.798;11.770;2023-06-04T02:58:53;97611.00;;;12.50
80496;BMP180;69819;48.798;11.770;2023-06-04T03:01:25;97627.00;;;12.60
80496;BMP180;69819;48.798;11.770;2023-06-04T03:03:52;97618.00;;;12.50
80496;BMP180;69819;48.798;11.770;2023-06-04T03:06:20;97623.00;;;12.30
80496;BMP180;69819;48.798;11.770;2023-06-04T03:08:50;97589.00;;;12.40
80496;BMP180;69819;48.798;11.770;2023-06-04T03:11:18;97627.00;;;12.40
80496;BMP180;69819;48.798;11.770;2023-06-04T03:13:47;97633.00;;;12.30
80496;BMP180;69819;48.798;11.770;2023-06-04T03:16:13;97621.00;;;12.40
80496;BMP180;69819;48.798;11.770;2023-06-04T03:18:43;97627.00;;;12.40
80496;BMP180;69819;48.798;11.770;2023-06-04T03:21:10;97643.00;;;12.40
80496;BMP180;69819;48.798;11.770;2023-06-04T03:23:40;97595.00;;;12.40
80496;BMP180;69819;48.798;11.770;2023-06-04T03:26:06;97616.00;;;12.40
80496;BMP180;69819;48.798;11.770;2023-06-04T03:28:33;97643.00;;;12.40
80496;BMP180;69819;48.798;11.770;2023-06-04T03:30:59;97641.00;;;12.30
80496;BMP180;69819;48.798;11.770;2023-06-04T03:33:26;97638.00;;;12.40
80496;BMP180;69819;48.798;11.770;2023-06-04T03:35:52;97637.00;;;12.50
80496;BMP180;69819;48.798;11.770;2023-06-04T03:38:19;97660.00;;;12.50
80496;BMP180;69819;48.798;11.770;2023-06-04T03:40:46;97632.00;;;12.60
80496;BMP180;69819;48.798;11.770;2023-06-04T03:43:11;97657.00;;;12.70
80496;BMP180;69819;48.798;11.770;2023-06-04T03:45:37;97646.00;;;12.80
80496;BMP180;69819;48.798;11.770;2023-06-04T03:48:03;97654.00;;;13.00
80496;BMP180;69819;48.798;11.770;2023-06-04T03:50:29;97655.00;;;13.20
80496;BMP180;69819;48.798;11.770;2023-06-04T03:52:55;97661.00;;;13.20
80496;BMP180;69819;48.798;11.770;2023-06-04T03:55:21;97638.00;;;13.70
80496;BMP180;69819;48.798;11.770;2023-06-04T03:57:48;97657.00;;;13.90
80496;BMP180;69819;48.798;11.770;2023-06-04T04:00:14;97645.00;;;14.30
80496;BMP180;69819;48.798;11.770;2023-06-04T04:02:41;97597.00;;;14.60
80496;BMP180;69819;48.798;11.770;2023-06-04T04:05:08;97653.00;;;14.90
80496;BMP180;69819;48.798;11.770;2023-06-04T04:07:35;97628.00;;;15.30
80496;BMP180;69819;48.798;11.770;2023-06-04T04:10:01;97662.00;;;15.60
80496;BMP180;69819;48.798;11.770;2023-06-04T04:12:27;97666.00;;;16.00
80496;BMP180;69819;48.798;11.770;2023-06-04T04:14:52;97666.00;;;16.40
80496;BMP180;69819;48.798;11.770;2023-06-04T04:17:18;97658.00;;;16.80
80496;BMP180;69819;48.798;11.770;2023-06-04T04:19:44;97659.00;;;17.20
80496;BMP180;69819;48.798;11.770;2023-06-04T04:22:13;97675.00;;;17.70
80496;BMP180;69819;48.798;11.770;2023-06-04T04:24:43;97656.00;;;18.10
80496;BMP180;69819;48.798;11.770;2023-06-04T04:27:09;97680.00;;;18.60
80496;BMP180;69819;48.798;11.770;2023-06-04T04:29:39;97669.00;;;19.00
80496;BMP180;69819;48.798;11.770;2023-06-04T04:32:05;97667.00;;;19.40
80496;BMP180;69819;48.798;11.770;2023-06-04T04:34:49;97675.00;;;19.80
80496;BMP180;69819;48.798;11.770;2023-06-04T04:37:17;97672.00;;;20.20
80496;BMP180;69819;48.798;11.770;2023-06-04T04:39:46;97638.00;;;20.60
80496;BMP180;69819;48.798;11.770;2023-06-04T04:42:12;97646.00;;;21.00
80496;BMP180;69819;48.798;11.770;2023-06-04T04:44:38;97671.00;;;21.40
80496;BMP180;69819;48.798;11.770;2023-06-04T04:47:03;97662.00;;;21.80
80496;BMP180;69819;48.798;11.770;2023-06-04T04:49:29;97664.00;;;22.30
80496;BMP180;69819;48.798;11.770;2023-06-04T04:51:55;97687.00;;;22.70
80496;BMP180;69819;48.798;11.770;2023-06-04T04:54:21;97684.00;;;23.10
80496;BMP180;69819;48.798;11.770;2023-06-04T04:56:47;97676.00;;;23.50
80496;BMP180;69819;48.798;11.770;2023-06-04T04:59:12;97693.00;;;23.90
80496;BMP180;69819;48.798;11.770;2023-06-04T05:01:38;97682.00;;;24.30
80496;BMP180;69819;48.798;11.770;2023-06-04T05:04:04;97684.00;;;24.70
80496;BMP180;69819;48.798;11.770;2023-06-04T05:06:30;97698.00;;;25.10
80496;BMP180;69819;48.798;11.770;2023-06-04T05:08:55;97705.00;;;25.40
80496;BMP180;69819;48.798;11.770;2023-06-04T05:11:21;97688.00;;;25.80
80496;BMP180;69819;48.798;11.770;2023-06-04T05:13:47;97697.00;;;26.20
80496;BMP180;69819;48.798;11.770;2023-06-04T05:16:13;97717.00;;;26.50
80496;BMP180;69819;48.798;11.770;2023-06-04T05:18:39;97717.00;;;26.90
80496;BMP180;69819;48.798;11.770;2023-06-04T05:21:10;97731.00;;;27.20
80496;BMP180;69819;48.798;11.770;2023-06-04T05:23:38;97726.00;;;27.50
80496;BMP180;69819;48.798;11.770;2023-06-04T05:26:05;97728.00;;;27.80
80496;BMP180;69819;48.798;11.770;2023-06-04T05:28:33;97723.00;;;28.00
80496;BMP180;69819;48.798;11.770;2023-06-04T05:31:00;97736.00;;;28.10
80496;BMP180;69819;48.798;11.770;2023-06-04T05:33:26;97725.00;;;28.40
80496;BMP180;69819;48.798;11.770;2023-06-04T05:35:53;97742.00;;;28.60
80496;BMP180;69819;48.798;11.770;2023-06-04T05:38:26;97723.00;;;28.90
80496;BMP180;69819;48.798;11.770;2023-06-04T05:40:55;97729.00;;;29.10
80496;BMP180;69819;48.798;11.770;2023-06-04T05:43:22;97749.00;;;29.40
80496;BMP180;69819;48.798;11.770;2023-06-04T05:45:48;97737.00;;;29.70
80496;BMP180;69819;48.798;11.770;2023-06-04T05:48:14;97735.00;;;29.90
80496;BMP180;69819;48.798;11.770;2023-06-04T05:50:40;97739.00;;;30.20
80496;BMP180;69819;48.798;11.770;2023-06-04T05:53:05;97743.00;;;30.50
80496;BMP180;69819;48.798;11.770;2023-06-04T05:55:32;97740.00;;;30.70
80496;BMP180;69819;48.798;11.770;2023-06-04T05:57:58;97744.00;;;31.00
80496;BMP180;69819;48.798;11.770;2023-06-04T06:00:24;97742.00;;;31.20
80496;BMP180;69819;48.798;11.770;2023-06-04T06:02:50;97761.00;;;31.40
80496;BMP180;69819;48.798;11.770;2023-06-04T06:05:19;97749.00;;;31.60
80496;BMP180;69819;48.798;11.770;2023-06-04T06:07:45;97761.00;;;31.90
80496;BMP180;69819;48.798;11.770;2023-06-04T06:10:12;97736.00;;;32.00
80496;BMP180;69819;48.798;11.770;2023-06-04T06:12:39;97756.00;;;32.20
80496;BMP180;69819;48.798;11.770;2023-06-04T06:15:06;97759.00;;;32.40
80496;BMP180;69819;48.798;11.770;2023-06-04T06:17:32;97754.00;;;32.60
80496;BMP180;69819;48.798;11.770;2023-06-04T06:20:04;97775.00;;;32.90
80496;BMP180;69819;48.798;11.770;2023-06-04T06:22:34;97775.00;;;33.10
80496;BMP180;69819;48.798;11.770;2023-06-04T06:25:02;97777.00;;;33.30
80496;BMP180;69819;48.798;11.770;2023-06-04T06:27:28;97788.00;;;33.50
80496;BMP180;69819;48.798;11.770;2023-06-04T06:29:54;97787.00;;;33.60
80496;BMP180;69819;48.798;11.770;2023-06-04T06:32:19;97788.00;;;33.60
80496;BMP180;69819;48.798;11.770;2023-06-04T06:34:45;97779.00;;;33.60
80496;BMP180;69819;48.798;11.770;2023-06-04T06:37:11;97783.00;;;33.70
80496;BMP180;69819;48.798;11.770;2023-06-04T06:39:36;97771.00;;;33.80
80496;BMP180;69819;48.798;11.770;2023-06-04T06:42:02;97784.00;;;33.90
80496;BMP180;69819;48.798;11.770;2023-06-04T06:44:28;97799.00;;;34.00
80496;BMP180;69819;48.798;11.770;2023-06-04T06:46:54;97793.00;;;34.10
80496;BMP180;69819;48.798;11.770;2023-06-04T06:49:20;97803.00;;;34.30
80496;BMP180;69819;48.798;11.770;2023-06-04T06:51:45;97804.00;;;34.50
80496;BMP180;69819;48.798;11.770;2023-06-04T06:54:15;97774.00;;;34.70
80496;BMP180;69819;48.798;11.770;2023-06-04T06:56:41;97806.00;;;35.00
80496;BMP180;69819;48.798;11.770;2023-06-04T06:59:07;97799.00;;;35.30
80496;BMP180;69819;48.798;11.770;2023-06-04T07:01:33;97805.00;;;35.50
80496;BMP180;69819;48.798;11.770;2023-06-04T07:03:59;97810.00;;;35.80
80496;BMP180;69819;48.798;11.770;2023-06-04T07:06:24;97794.00;;;36.00
80496;BMP180;69819;48.798;11.770;2023-06-04T07:08:50;97799.00;;;36.10
80496;BMP180;69819;48.798;11.770;2023-06-04T07:11:16;97813.00;;;36.20
80496;BMP180;69819;48.798;11.770;2023-06-04T07:13:42;97794.00;;;36.40
80496;BMP180;69819;48.798;11.770;2023-06-04T07:16:08;97812.00;;;36.30
80496;BMP180;69819;48.798;11.770;2023-06-04T07:18:33;97800.00;;;35.90
80496;BMP180;69819;48.798;11.770;2023-06-04T07:20:59;97815.00;;;35.40
80496;BMP180;69819;48.798;11.770;2023-06-04T07:23:25;97797.00;;;35.00
80496;BMP180;69819;48.798;11.770;2023-06-04T07:25:51;97815.00;;;34.90
80496;BMP180;69819;48.798;11.770;2023-06-04T07:28:17;97795.00;;;34.90
80496;BMP180;69819;48.798;11.770;2023-06-04T07:30:45;97788.00;;;35.00
80496;BMP180;69819;48.798;11.770;2023-06-04T07:33:12;97809.00;;;35.10
80496;BMP180;69819;48.798;11.770;2023-06-04T07:35:37;97789.00;;;35.30
80496;BMP180;69819;48.798;11.770;2023-06-04T07:38:03;97785.00;;;35.60
80496;BMP180;69819;48.798;11.770;2023-06-04T07:40:29;97793.00;;;35.90
80496;BMP180;69819;48.798;11.770;2023-06-04T07:42:55;97797.00;;;36.30
80496;BMP180;69819;48.798;11.770;2023-06-04T07:45:20;97805.00;;;36.60
80496;BMP180;69819;48.798;11.770;2023-06-04T07:47:46;97801.00;;;36.80
80496;BMP180;69819;48.798;11.770;2023-06-04T07:50:12;97806.00;;;37.10
80496;BMP180;69819;48.798;11.770;2023-06-04T07:52:38;97785.00;;;37.30
80496;BMP180;69819;48.798;11.770;2023-06-04T07:55:04;97791.00;;;37.30
80496;BMP180;69819;48.798;11.770;2023-06-04T07:57:30;97788.00;;;37.40
80496;BMP180;69819;48.798;11.770;2023-06-04T07:59:57;97802.00;;;37.60
80496;BMP180;69819;48.798;11.770;2023-06-04T08:02:23;97790.00;;;37.70
80496;BMP180;69819;48.798;11.770;2023-06-04T08:04:49;97787.00;;;37.80
80496;BMP180;69819;48.798;11.770;2023-06-04T08:07:15;97783.00;;;37.80
80496;BMP180;69819;48.798;11.770;2023-06-04T08:09:41;97780.00;;;38.00
80496;BMP180;69819;48.798;11.770;2023-06-04T08:12:07;97799.00;;;38.20
80496;BMP180;69819;48.798;11.770;2023-06-04T08:14:33;97797.00;;;38.40
80496;BMP180;69819;48.798;11.770;2023-06-04T08:16:58;97798.00;;;38.60
80496;BMP180;69819;48.798;11.770;2023-06-04T08:19:24;97802.00;;;38.80
80496;BMP180;69819;48.798;11.770;2023-06-04T08:21:50;97779.00;;;38.80
80496;BMP180;69819;48.798;11.770;2023-06-04T08:24:16;97790.00;;;38.80
80496;BMP180;69819;48.798;11.770;2023-06-04T08:26:42;97794.00;;;38.90
80496;BMP180;69819;48.798;11.770;2023-06-04T08:29:08;97801.00;;;39.10
80496;BMP180;69819;48.798;11.770;2023-06-04T08:31:34;97788.00;;;39.30
80496;BMP180;69819;48.798;11.770;2023-06-04T08:34:00;97790.00;;;39.40
80496;BMP180;69819;48.798;11.770;2023-06-04T08:36:27;97797.00;;;39.50
80496;BMP180;69819;48.798;11.770;2023-06-04T08:38:53;97802.00;;;39.70
80496;BMP180;69819;48.798;11.770;2023-06-04T08:41:49;97804.00;;;39.90
80496;BMP180;69819;48.798;11.770;2023-06-04T08:44:17;97809.00;;;40.10
80496;BMP180;69819;48.798;11.770;2023-06-04T08:46:44;97801.00;;;40.30
80496;BMP180;69819;48.798;11.770;2023-06-04T08:49:12;97810.00;;;40.40
80496;BMP180;69819;48.798;11.770;2023-06-04T08:51:39;97809.00;;;40.40
80496;BMP180;69819;48.798;11.770;2023-06-04T08:54:07;97806.00;;;40.40
80496;BMP180;69819;48.798;11.770;2023-06-04T08:56:34;97811.00;;;40.40
80496;BMP180;69819;48.798;11.770;2023-06-04T08:59:07;97811.00;;;40.30
80496;BMP180;69819;48.798;11.770;2023-06-04T09:01:35;97805.00;;;40.20
80496;BMP180;69819;48.798;11.770;2023-06-04T09:04:05;97809.00;;;40.30
80496;BMP180;69819;48.798;11.770;2023-06-04T09:06:33;97818.00;;;40.30
80496;BMP180;69819;48.798;11.770;2023-06-04T09:09:03;97799.00;;;40.30
80496;BMP180;69819;48.798;11.770;2023-06-04T09:11:53;97806.00;;;40.30
80496;BMP180;69819;48.798;11.770;2023-06-04T09:14:20;97805.00;;;40.30
80496;BMP180;69819;48.798;11.770;2023-06-04T09:16:48;97805.00;;;40.40
80496;BMP180;69819;48.798;11.770;2023-06-04T09:19:16;97805.00;;;40.40
80496;BMP180;69819;48.798;11.770;2023-06-04T09:21:54;97816.00;;;40.20
80496;BMP180;69819;48.798;11.770;2023-06-04T09:24:23;97811.00;;;40.00
80496;BMP180;69819;48.798;11.770;2023-06-04T09:26:49;97790.00;;;39.90
80496;BMP180;69819;48.798;11.770;2023-06-04T09:29:16;97806.00;;;39.90
80496;BMP180;69819;48.798;11.770;2023-06-04T09:31:45;97773.00;;;39.80
80496;BMP180;69819;48.798;11.770;2023-06-04T09:34:13;97800.00;;;39.60
80496;BMP180;69819;48.798;11.770;2023-06-04T09:36:39;97799.00;;;39.50
80496;BMP180;69819;48.798;11.770;2023-06-04T09:39:17;97813.00;;;39.40
80496;BMP180;69819;48.798;11.770;2023-06-04T09:41:44;97802.00;;;39.20
80496;BMP180;69819;48.798;11.770;2023-06-04T09:44:09;97794.00;;;38.90
80496;BMP180;69819;48.798;11.770;2023-06-04T09:46:37;97804.00;;;38.30
80496;BMP180;69819;48.798;11.770;2023-06-04T09:49:05;97789.00;;;37.50
80496;BMP180;69819;48.798;11.770;2023-06-04T09:51:32;97790.00;;;36.70
80496;BMP180;69819;48.798;11.770;2023-06-04T09:54:02;97792.00;;;36.00
80496;BMP180;69819;48.798;11.770;2023-06-04T09:56:29;97782.00;;;35.30
80496;BMP180;69819;48.798;11.770;2023-06-04T09:58:59;97788.00;;;34.60
80496;BMP180;69819;48.798;11.770;2023-06-04T10:01:29;97796.00;;;34.10
80496;BMP180;69819;48.798;11.770;2023-06-04T10:04:02;97779.00;;;33.60
80496;BMP180;69819;48.798;11.770;2023-06-04T10:06:33;97785.00;;;33.30
80496;BMP180;69819;48.798;11.770;2023-06-04T10:09:08;97779.00;;;33.00
80496;BMP180;69819;48.798;11.770;2023-06-04T10:11:38;97784.00;;;32.80
80496;BMP180;69819;48.798;11.770;2023-06-04T10:14:25;97791.00;;;32.60
80496;BMP180;69819;48.798;11.770;2023-06-04T10:16:56;97781.00;;;32.40
80496;BMP180;69819;48.798;11.770;2023-06-04T10:19:23;97773.00;;;32.10
80496;BMP180;69819;48.798;11.770;2023-06-04T10:21:50;97753.00;;;31.70
80496;BMP180;69819;48.798;11.770;2023-06-04T10:24:16;97760.00;;;31.40
80496;BMP180;69819;48.798;11.770;2023-06-04T10:26:42;97749.00;;;31.00
80496;BMP180;69819;48.798;11.770;2023-06-04T10:29:09;97755.00;;;30.60
80496;BMP180;69819;48.798;11.770;2023-06-04T10:31:37;97730.00;;;30.10
80496;BMP180;69819;48.798;11.770;2023-06-04T10:34:03;97752.00;;;29.70
80496;BMP180;69819;48.798;11.770;2023-06-04T10:36:28;97750.00;;;29.50
80496;BMP180;69819;48.798;11.770;2023-06-04T10:38:55;97768.00;;;29.40
80496;BMP180;69819;48.798;11.770;2023-06-04T10:41:23;97761.00;;;29.20
80496;BMP180;69819;48.798;11.770;2023-06-04T10:43:50;97768.00;;;29.00
80496;BMP180;69819;48.798;11.770;2023-06-04T10:46:19;97745.00;;;28.70
80496;BMP180;69819;48.798;11.770;2023-06-04T10:48:52;97761.00;;;28.30
80496;BMP180;69819;48.798;11.770;2023-06-04T10:51:33;97767.00;;;27.90
80496;BMP180;69819;48.798;11.770;2023-06-04T10:54:01;97765.00;;;27.60
80496;BMP180;69819;48.798;11.770;2023-06-04T10:56:34;97759.00;;;27.30
80496;BMP180;69819;48.798;11.770;2023-06-04T10:59:14;97769.00;;;27.10
80496;BMP180;69819;48.798;11.770;2023-06-04T11:01:40;97757.00;;;27.00
80496;BMP180;69819;48.798;11.770;2023-06-04T11:04:06;97749.00;;;26.90
80496;BMP180;69819;48.798;11.770;2023-06-04T11:06:32;97739.00;;;26.80
80496;BMP180;69819;48.798;11.770;2023-06-04T11:09:05;97769.00;;;26.70
80496;BMP180;69819;48.798;11.770;2023-06-04T11:11:32;97737.00;;;26.60
80496;BMP180;69819;48.798;11.770;2023-06-04T11:14:11;97748.00;;;26.50
80496;BMP180;69819;48.798;11.770;2023-06-04T11:16:41;97754.00;;;26.50
80496;BMP180;69819;48.798;11.770;2023-06-04T11:19:07;97736.00;;;26.40
80496;BMP180;69819;48.798;11.770;2023-06-04T11:21:34;97735.00;;;26.30
80496;BMP180;69819;48.798;11.770;2023-06-04T11:24:03;97738.00;;;26.30
80496;BMP180;69819;48.798;11.770;2023-06-04T11:26:34;97716.00;;;26.30
80496;BMP180;69819;48.798;11.770;2023-06-04T11:29:05;97720.00;;;26.30
80496;BMP180;69819;48.798;11.770;2023-06-04T11:31:45;97734.00;;;26.20
80496;BMP180;69819;48.798;11.770;2023-06-04T11:34:22;97755.00;;;26.20
80496;BMP180;69819;48.798;11.770;2023-06-04T11:36:48;97736.00;;;26.10
80496;BMP180;69819;48.798;11.770;2023-06-04T11:39:15;97735.00;;;26.00
80496;BMP180;69819;48.798;11.770;2023-06-04T11:41:42;97711.00;;;26.00
80496;BMP180;69819;48.798;11.770;2023-06-04T11:44:08;97740.00;;;25.90
80496;BMP180;69819;48.798;11.770;2023-06-04T11:46:35;97712.00;;;25.90
80496;BMP180;69819;48.798;11.770;2023-06-04T11:49:04;97745.00;;;25.90
80496;BMP180;69819;48.798;11.770;2023-06-04T11:51:31;97726.00;;;25.90
80496;BMP180;69819;48.798;11.770;2023-06-04T11:53:57;97730.00;;;25.90
80496;BMP180;69819;48.798;11.770;2023-06-04T11:56:24;97725.00;;;25.90
80496;BMP180;69819;48.798;11.770;2023-06-04T11:58:57;97714.00;;;25.80
80496;BMP180;69819;48.798;11.770;2023-06-04T12:01:23;97734.00;;;25.80
80496;BMP180;69819;48.798;11.770;2023-06-04T12:03:54;97725.00;;;25.80
80496;BMP180;69819;48.798;11.770;2023-06-04T12:06:20;97722.00;;;25.80
80496;BMP180;69819;48.798;11.770;2023-06-04T12:08:50;97727.00;;;25.80
80496;BMP180;69819;48.798;11.770;2023-06-04T12:11:29;97720.00;;;25.80
80496;BMP180;69819;48.798;11.770;2023-06-04T12:14:00;97722.00;;;25.80
80496;BMP180;69819;48.798;11.770;2023-06-04T12:16:27;97729.00;;;25.80
80496;BMP180;69819;48.798;11.770;2023-06-04T12:19:07;97708.00;;;25.80
80496;BMP180;69819;48.798;11.770;2023-06-04T12:21:33;97716.00;;;25.90
80496;BMP180;69819;48.798;11.770;2023-06-04T12:26:32;97696.00;;;25.90
80496;BMP180;69819;48.798;11.770;2023-06-04T12:29:13;97706.00;;;25.90
80496;BMP180;69819;48.798;11.770;2023-06-04T12:31:41;97707.00;;;26.00
80496;BMP180;69819;48.798;11.770;2023-06-04T12:34:08;97685.00;;;26.00
80496;BMP180;69819;48.798;11.770;2023-06-04T12:36:34;97698.00;;;26.10
80496;BMP180;69819;48.798;11.770;2023-06-04T12:39:02;97715.00;;;26.10
80496;BMP180;69819;48.798;11.770;2023-06-04T12:41:29;97722.00;;;26.10
80496;BMP180;69819;48.798;11.770;2023-06-04T12:43:55;97712.00;;;26.10
80496;BMP180;69819;48.798;11.770;2023-06-04T12:46:23;97699.00;;;26.10
80496;BMP180;69819;48.798;11.770;2023-06-04T12:48:54;97702.00;;;26.10
80496;BMP180;69819;48.798;11.770;2023-06-04T12:51:21;97691.00;;;26.20
80496;BMP180;69819;48.798;11.770;2023-06-04T12:53:48;97699.00;;;26.20
80496;BMP180;69819;48.798;11.770;2023-06-04T12:56:14;97690.00;;;26.20
80496;BMP180;69819;48.798;11.770;2023-06-04T12:58:40;97678.00;;;26.20
80496;BMP180;69819;48.798;11.770;2023-06-04T13:01:06;97672.00;;;26.20
80496;BMP180;69819;48.798;11.770;2023-06-04T13:03:33;97683.00;;;26.20
80496;BMP180;69819;48.798;11.770;2023-06-04T13:05:59;97691.00;;;26.30
80496;BMP180;69819;48.798;11.770;2023-06-04T13:08:25;97663.00;;;26.30
80496;BMP180;69819;48.798;11.770;2023-06-04T13:10:52;97686.00;;;26.40
80496;BMP180;69819;48.798;11.770;2023-06-04T13:13:19;97662.00;;;26.50
80496;BMP180;69819;48.798;11.770;2023-06-04T13:15:46;97671.00;;;26.50
80496;BMP180;69819;48.798;11.770;2023-06-04T13:18:12;97682.00;;;26.50
80496;BMP180;69819;48.798;11.770;2023-06-04T13:20:40;97677.00;;;26.50
80496;BMP180;69819;48.798;11.770;2023-06-04T13:23:06;97685.00;;;26.60
80496;BMP180;69819;48.798;11.770;2023-06-04T13:25:32;97683.00;;;26.60
80496;BMP180;69819;48.798;11.770;2023-06-04T13:28:03;97635.00;;;26.50
80496;BMP180;69819;48.798;11.770;2023-06-04T13:30:29;97660.00;;;26.60
80496;BMP180;69819;48.798;11.770;2023-06-04T13:32:55;97652.00;;;26.60
80496;BMP180;69819;48.798;11.770;2023-06-04T13:35:21;97665.00;;;26.60
80496;BMP180;69819;48.798;11.770;2023-06-04T13:37:47;97661.00;;;26.60
80496;BMP180;69819;48.798;11.770;2023-06-04T13:40:14;97666.00;;;26.60
80496;BMP180;69819;48.798;11.770;2023-06-04T13:42:40;97669.00;;;26.60
80496;BMP180;69819;48.798;11.770;2023-06-04T13:45:06;97648.00;;;26.60
80496;BMP180;69819;48.798;11.770;2023-06-04T13:47:32;97653.00;;;26.60
80496;BMP180;69819;48.798;11.770;2023-06-04T13:49:58;97646.00;;;26.60
80496;BMP180;69819;48.798;11.770;2023-06-04T13:52:24;97657.00;;;26.60
80496;BMP180;69819;48.798;11.770;2023-06-04T13:54:49;97661.00;;;26.70
80496;BMP180;69819;48.798;11.770;2023-06-04T13:57:16;97669.00;;;26.70
80496;BMP180;69819;48.798;11.770;2023-06-04T13:59:42;97659.00;;;26.70
80496;BMP180;69819;48.798;11.770;2023-06-04T14:02:08;97668.00;;;26.70
80496;BMP180;69819;48.798;11.770;2023-06-04T14:04:34;97642.00;;;26.70
80496;BMP180;69819;48.798;11.770;2023-06-04T14:07:00;97669.00;;;26.80